Time;durP1;ratioP1;P1;durP2;ratioP2;P2;SDS_P1;SDS_P2;PMS_P1;PMS_P2;Temp;Humidity;BMP_temperature;BMP_pressure;BME280_temperature;BME280_humidity;BME280_pressure;Samples;Min_cycle;Max_cycle;Signal;HPM_P1;HPM_P2
2024/01/24 00:01:52;;;;;;;9.87;3.20;;;11.60;99.90;;;;;;5080289;28;20570;-80
2024/01/24 00:04:20;;;;;;;7.93;3.57;;;11.70;99.90;;;;;;5077154;28;21200;-80
2024/01/24 00:06:48;;;;;;;7.03;2.70;;;11.70;99.90;;;;;;5081328;28;20477;-79
2024/01/24 00:09:15;;;;;;;10.00;2.97;;;11.70;99.90;;;;;;5079172;28;20463;-80
2024/01/24 00:11:42;;;;;;;6.63;3.40;;;11.80;99.90;;;;;;5076898;28;20587;-81
2024/01/24 00:14:10;;;;;;;9.50;3.03;;;11.80;99.90;;;;;;5077175;28;20486;-81
2024/01/24 00:16:37;;;;;;;6.77;2.63;;;11.80;99.90;;;;;;5079618;28;21057;-81
2024/01/24 00:19:05;;;;;;;7.93;2.73;;;11.90;99.90;;;;;;5078071;28;20819;-80
2024/01/24 00:21:31;;;;;;;8.47;3.30;;;11.80;99.90;;;;;;5079082;28;20443;-80
2024/01/24 00:23:59;;;;;;;6.70;3.47;;;11.80;99.90;;;;;;5077626;28;20455;-80
2024/01/24 00:26:26;;;;;;;9.03;3.60;;;11.80;99.90;;;;;;5076785;28;20470;-80
2024/01/24 00:28:52;;;;;;;6.97;2.87;;;11.80;99.90;;;;;;5077374;28;20453;-81
2024/01/24 00:31:19;;;;;;;13.10;4.10;;;11.80;99.90;;;;;;5079272;28;20993;-80
2024/01/24 00:33:46;;;;;;;5.03;2.70;;;11.80;99.90;;;;;;5083564;28;20275;-80
2024/01/24 00:36:12;;;;;;;4.63;2.70;;;11.90;99.90;;;;;;5077948;28;20462;-80
2024/01/24 00:38:39;;;;;;;8.93;3.80;;;11.90;99.90;;;;;;5079331;28;20455;-81
2024/01/24 00:41:07;;;;;;;6.10;3.07;;;11.90;99.90;;;;;;5078838;28;21071;-81
2024/01/24 00:43:34;;;;;;;8.43;3.07;;;11.90;99.90;;;;;;5077308;28;20460;-81
2024/01/24 00:46:03;;;;;;;6.60;2.50;;;12.00;99.90;;;;;;5080019;28;20478;-81
2024/01/24 00:48:30;;;;;;;8.23;2.43;;;12.00;99.90;;;;;;5077358;28;20529;-80
2024/01/24 00:50:57;;;;;;;6.03;2.63;;;12.10;99.90;;;;;;5080585;28;20462;-82
2024/01/24 00:53:26;;;;;;;6.47;3.60;;;12.10;99.90;;;;;;5080182;28;20521;-80
2024/01/24 00:55:55;;;;;;;10.80;3.50;;;12.20;99.90;;;;;;5079754;28;20456;-82
2024/01/24 00:58:24;;;;;;;6.43;2.33;;;12.20;99.90;;;;;;5077934;28;20468;-83
2024/01/24 01:00:51;;;;;;;9.53;2.80;;;12.30;99.90;;;;;;5082712;28;20452;-81
2024/01/24 01:03:18;;;;;;;4.43;2.63;;;12.30;99.90;;;;;;5078159;28;20443;-81
2024/01/24 01:05:45;;;;;;;6.20;2.83;;;12.30;99.90;;;;;;5077172;28;20456;-81
2024/01/24 01:08:11;;;;;;;6.03;2.40;;;12.30;99.90;;;;;;5078008;28;20477;-79
2024/01/24 01:10:38;;;;;;;4.43;2.60;;;12.40;99.90;;;;;;5079154;28;20464;-81
2024/01/24 01:13:05;;;;;;;7.57;2.40;;;12.40;99.90;;;;;;5077033;28;20497;-81
2024/01/24 01:15:33;;;;;;;7.23;2.37;;;12.40;99.90;;;;;;5079459;28;21019;-81
2024/01/24 01:18:00;;;;;;;8.43;4.60;;;12.50;99.90;;;;;;5084959;28;20571;-80
2024/01/24 01:20:27;;;;;;;4.67;2.80;;;12.50;99.90;;;;;;5076734;28;20459;-80
2024/01/24 01:22:53;;;;;;;6.90;2.37;;;12.50;99.90;;;;;;5076416;28;20533;-80
2024/01/24 01:25:25;;;;;;;3.60;2.30;;;12.50;99.90;;;;;;5075297;28;20458;-80
2024/01/24 01:27:52;;;;;;;4.23;2.40;;;12.60;99.90;;;;;;5075221;28;20678;-79
2024/01/24 01:30:19;;;;;;;9.23;3.33;;;12.60;99.90;;;;;;5076130;28;20537;-80
2024/01/24 01:32:47;;;;;;;6.97;2.53;;;12.70;99.90;;;;;;5079324;28;20495;-79
2024/01/24 01:35:14;;;;;;;8.60;2.90;;;12.70;99.90;;;;;;5070907;28;20517;-79
2024/01/24 01:37:41;;;;;;;5.17;2.90;;;12.70;99.90;;;;;;5072102;28;20563;-79
2024/01/24 01:40:08;;;;;;;6.33;3.13;;;12.70;99.90;;;;;;5064512;28;20463;-80
2024/01/24 01:42:35;;;;;;;6.87;2.40;;;12.80;99.90;;;;;;5074883;28;20492;-78
2024/01/24 01:45:03;;;;;;;5.83;2.43;;;12.80;99.90;;;;;;5074305;28;20453;-79
2024/01/24 01:47:30;;;;;;;4.73;1.97;;;12.80;99.90;;;;;;5078775;28;20486;-79
2024/01/24 01:49:58;;;;;;;4.70;2.13;;;12.90;99.90;;;;;;5073669;28;20518;-80
2024/01/24 01:52:25;;;;;;;5.90;1.90;;;12.90;99.90;;;;;;5073911;28;20485;-80
2024/01/24 01:54:52;;;;;;;6.80;2.10;;;12.90;99.90;;;;;;5073430;28;20894;-79
2024/01/24 01:57:19;;;;;;;3.03;1.80;;;12.90;99.90;;;;;;5073703;28;20469;-79
2024/01/24 01:59:47;;;;;;;4.70;1.97;;;12.90;99.90;;;;;;5074066;28;21028;-80
2024/01/24 02:02:15;;;;;;;4.10;1.80;;;13.00;99.90;;;;;;5073847;28;20453;-80
2024/01/24 02:04:41;;;;;;;5.40;2.10;;;13.00;99.90;;;;;;5074110;28;20449;-80
2024/01/24 02:07:10;;;;;;;4.77;2.03;;;13.10;99.90;;;;;;5073516;28;20844;-80
2024/01/24 02:09:36;;;;;;;3.77;1.90;;;12.90;99.90;;;;;;5075441;28;20454;-79
2024/01/24 02:12:04;;;;;;;3.63;2.07;;;12.80;99.90;;;;;;5076639;28;20514;-81
2024/01/24 02:14:31;;;;;;;3.97;1.57;;;12.70;99.90;;;;;;5084370;28;20470;-79
2024/01/24 02:16:57;;;;;;;4.13;2.10;;;12.60;99.90;;;;;;5079661;28;20572;-80
2024/01/24 02:19:25;;;;;;;7.83;2.00;;;12.50;99.90;;;;;;5074384;28;20465;-79
2024/01/24 02:21:53;;;;;;;5.33;2.23;;;12.50;99.90;;;;;;5082810;28;20993;-79
2024/01/24 02:24:21;;;;;;;2.17;1.60;;;12.50;99.90;;;;;;5082747;28;20543;-80
2024/01/24 02:26:48;;;;;;;2.77;1.40;;;12.50;99.90;;;;;;5082768;28;20515;-79
2024/01/24 02:29:15;;;;;;;5.10;2.37;;;12.60;99.90;;;;;;5084146;28;20470;-79
2024/01/24 02:31:42;;;;;;;3.70;1.73;;;12.60;99.90;;;;;;5082835;28;20463;-79
2024/01/24 02:34:08;;;;;;;3.40;1.67;;;12.70;99.90;;;;;;5081521;28;20457;-80
2024/01/24 02:36:35;;;;;;;2.60;1.20;;;12.70;99.90;;;;;;5076967;28;20470;-79
2024/01/24 02:39:02;;;;;;;2.60;1.23;;;12.80;99.90;;;;;;5078729;28;20457;-81
2024/01/24 02:41:33;;;;;;;1.90;1.63;;;12.80;99.90;;;;;;5075653;28;20545;-80
2024/01/24 02:43:59;;;;;;;1.70;1.17;;;12.90;99.90;;;;;;5074601;28;21010;-78
2024/01/24 02:46:26;;;;;;;2.40;1.30;;;13.00;99.90;;;;;;5081417;28;20457;-81
2024/01/24 02:48:53;;;;;;;3.57;1.30;;;13.10;99.90;;;;;;5074144;28;20529;-81
2024/01/24 02:51:26;;;;;;;2.67;1.10;;;13.20;99.90;;;;;;5076138;28;20454;-80
2024/01/24 02:53:53;;;;;;;1.70;1.17;;;13.20;99.90;;;;;;5081379;28;21084;-80
2024/01/24 02:56:21;;;;;;;3.37;1.20;;;13.20;99.90;;;;;;5080356;28;20527;-80
2024/01/24 02:58:49;;;;;;;1.87;1.10;;;13.20;99.90;;;;;;5080969;28;20483;-80
2024/01/24 03:01:16;;;;;;;1.60;1.00;;;13.20;99.90;;;;;;5080300;28;20508;-79
2024/01/24 03:03:43;;;;;;;3.17;1.20;;;13.20;99.90;;;;;;5078308;28;20451;-80
2024/01/24 03:06:10;;;;;;;1.80;1.00;;;13.40;99.90;;;;;;5076011;28;20484;-80
2024/01/24 03:08:50;;;;;;;2.40;1.33;;;13.40;99.90;;;;;;5075590;28;20480;-80
2024/01/24 03:11:17;;;;;;;2.60;1.00;;;13.50;99.90;;;;;;5074262;28;20539;-81
2024/01/24 03:13:44;;;;;;;3.30;0.93;;;13.50;99.90;;;;;;5074711;28;20494;-80
2024/01/24 03:16:13;;;;;;;1.90;0.90;;;13.50;99.90;;;;;;5084345;28;20474;-80
2024/01/24 03:18:40;;;;;;;1.90;1.00;;;13.50;99.90;;;;;;5074531;28;20838;-80
2024/01/24 03:21:09;;;;;;;3.80;1.20;;;13.50;99.90;;;;;;5075952;28;20455;-80
2024/01/24 03:23:37;;;;;;;1.63;0.90;;;13.60;99.90;;;;;;5076215;28;20457;-80
2024/01/24 03:26:05;;;;;;;2.17;1.00;;;13.60;99.90;;;;;;5078084;28;20462;-80
2024/01/24 03:28:32;;;;;;;1.47;0.80;;;13.50;99.90;;;;;;5078320;28;20552;-80
2024/01/24 03:30:59;;;;;;;2.80;1.10;;;13.60;99.90;;;;;;5080535;28;20463;-80
2024/01/24 03:33:27;;;;;;;1.80;0.90;;;13.60;99.90;;;;;;5077709;28;20490;-80
2024/01/24 03:35:54;;;;;;;1.70;0.90;;;13.50;99.90;;;;;;5080853;28;20815;-81
2024/01/24 03:38:21;;;;;;;2.47;0.83;;;13.60;99.90;;;;;;5078305;28;20478;-81
2024/01/24 03:40:48;;;;;;;6.00;1.20;;;13.60;99.90;;;;;;5086156;28;20461;-81
2024/01/24 03:43:16;;;;;;;1.73;1.07;;;13.60;99.90;;;;;;5078731;28;20454;-80
2024/01/24 03:45:43;;;;;;;2.00;0.80;;;13.50;99.90;;;;;;5087326;28;20472;-79
2024/01/24 03:48:10;;;;;;;1.60;0.90;;;13.40;99.90;;;;;;5091045;28;20472;-79
2024/01/24 03:50:39;;;;;;;1.40;0.80;;;13.30;99.90;;;;;;5086716;28;20567;-80
2024/01/24 03:53:06;;;;;;;1.93;0.87;;;13.20;99.90;;;;;;5087508;28;20839;-80
2024/01/24 03:55:32;;;;;;;1.80;0.80;;;13.10;99.90;;;;;;5085647;28;20813;-80
2024/01/24 03:57:59;;;;;;;1.80;0.90;;;13.00;99.90;;;;;;5086340;28;20553;-79
2024/01/24 04:00:26;;;;;;;1.70;1.00;;;13.00;99.90;;;;;;5093004;28;20462;-81
2024/01/24 04:02:54;;;;;;;1.60;0.90;;;13.00;99.90;;;;;;5084134;28;20530;-80
2024/01/24 04:05:21;;;;;;;3.30;1.00;;;13.00;99.90;;;;;;5080050;28;20457;-81
2024/01/24 04:07:49;;;;;;;1.50;0.90;;;12.80;99.90;;;;;;5080348;28;20505;-80
2024/01/24 04:10:16;;;;;;;1.70;1.20;;;12.60;99.90;;;;;;5081943;28;20459;-80
2024/01/24 04:12:43;;;;;;;1.83;1.30;;;12.60;99.90;;;;;;5087015;28;20498;-79
2024/01/24 04:15:10;;;;;;;1.83;1.60;;;12.50;99.90;;;;;;5083443;28;20457;-80
2024/01/24 04:17:37;;;;;;;1.80;1.60;;;12.40;99.90;;;;;;5078803;28;20559;-78
2024/01/24 04:20:04;;;;;;;1.63;1.47;;;12.30;99.90;;;;;;5079328;28;20456;-81
2024/01/24 04:22:31;;;;;;;2.87;1.10;;;12.30;99.90;;;;;;5078820;28;20448;-81
2024/01/24 04:25:00;;;;;;;6.10;1.60;;;12.30;99.90;;;;;;5078472;28;20463;-80
2024/01/24 04:27:27;;;;;;;2.20;1.67;;;12.30;99.90;;;;;;5082349;28;20487;-80
2024/01/24 04:29:54;;;;;;;2.00;1.70;;;12.20;99.90;;;;;;5081923;28;20482;-79
2024/01/24 04:32:21;;;;;;;2.43;1.30;;;12.20;99.90;;;;;;5069502;28;20461;-80
2024/01/24 04:34:48;;;;;;;4.67;1.23;;;12.20;99.90;;;;;;5076285;28;20457;-79
2024/01/24 04:37:14;;;;;;;2.37;0.80;;;12.10;99.90;;;;;;5077629;28;20486;-81
2024/01/24 04:39:41;;;;;;;2.43;1.00;;;12.00;99.90;;;;;;5079208;28;20457;-82
2024/01/24 04:42:09;;;;;;;1.50;0.90;;;12.00;99.90;;;;;;5078386;28;20459;-79
2024/01/24 04:44:36;;;;;;;1.90;0.97;;;12.00;99.90;;;;;;5080196;28;20455;-79
2024/01/24 04:47:02;;;;;;;2.30;0.80;;;12.00;99.90;;;;;;5087091;28;20480;-80
2024/01/24 04:49:29;;;;;;;1.70;0.80;;;11.90;99.90;;;;;;5080540;28;20818;-80
2024/01/24 04:51:56;;;;;;;2.13;1.10;;;11.90;99.90;;;;;;5077299;28;20463;-79
2024/01/24 04:54:23;;;;;;;1.40;0.80;;;11.90;99.90;;;;;;5076767;28;20494;-80
2024/01/24 04:56:50;;;;;;;1.67;0.70;;;11.90;99.90;;;;;;5076933;28;20587;-80
2024/01/24 04:59:18;;;;;;;1.87;0.80;;;11.90;99.90;;;;;;5076937;28;20473;-81
2024/01/24 05:01:44;;;;;;;2.10;1.00;;;11.90;99.90;;;;;;5079603;28;20536;-81
2024/01/24 05:04:11;;;;;;;2.33;0.90;;;11.90;99.90;;;;;;5076874;28;20449;-79
2024/01/24 05:06:38;;;;;;;1.90;0.80;;;11.90;99.90;;;;;;5075466;28;20480;-79
2024/01/24 05:09:05;;;;;;;2.87;1.10;;;11.80;99.90;;;;;;5075166;28;20559;-79
2024/01/24 05:11:32;;;;;;;1.87;0.77;;;11.80;99.90;;;;;;5075995;28;20517;-80
2024/01/24 05:14:00;;;;;;;2.27;0.80;;;11.80;99.90;;;;;;5076619;28;20492;-80
2024/01/24 05:16:29;;;;;;;4.60;1.00;;;11.80;99.90;;;;;;5079356;28;21179;-80
2024/01/24 05:18:57;;;;;;;2.43;0.80;;;11.80;99.90;;;;;;5075466;28;20460;-80
2024/01/24 05:21:23;;;;;;;2.33;1.10;;;11.80;99.90;;;;;;5075558;28;20451;-79
2024/01/24 05:23:52;;;;;;;5.43;1.30;;;11.80;99.90;;;;;;5079105;28;20526;-80
2024/01/24 05:26:19;;;;;;;2.43;1.10;;;11.90;99.90;;;;;;5085929;28;20471;-79
2024/01/24 05:28:46;;;;;;;4.63;0.90;;;11.90;99.90;;;;;;5082102;28;20517;-79
2024/01/24 05:31:13;;;;;;;4.60;1.00;;;12.00;99.90;;;;;;5083880;28;20533;-78
2024/01/24 05:33:41;;;;;;;2.70;0.90;;;12.10;99.90;;;;;;5084089;28;20898;-80
2024/01/24 05:36:09;;;;;;;2.77;1.17;;;12.10;99.90;;;;;;5079036;28;20457;-81
2024/01/24 05:38:36;;;;;;;3.90;1.30;;;12.20;99.90;;;;;;5076278;28;20476;-80
2024/01/24 05:41:03;;;;;;;8.20;1.50;;;12.20;99.90;;;;;;5075326;28;20451;-80
2024/01/24 05:43:30;;;;;;;4.33;2.07;;;12.20;99.90;;;;;;5081892;28;20521;-79
2024/01/24 05:45:57;;;;;;;5.57;1.40;;;12.20;99.90;;;;;;5075014;28;20467;-79
2024/01/24 05:48:24;;;;;;;5.80;1.83;;;12.20;99.90;;;;;;5075099;28;20477;-77
2024/01/24 05:50:52;;;;;;;10.73;2.50;;;12.20;99.90;;;;;;5073939;28;20452;-81
2024/01/24 05:53:18;;;;;;;8.03;1.93;;;12.20;99.90;;;;;;5073622;28;20497;-80
2024/01/24 05:55:46;;;;;;;5.50;1.60;;;12.30;99.90;;;;;;5074931;28;20460;-80
2024/01/24 05:58:13;;;;;;;9.03;3.23;;;12.30;99.90;;;;;;5073760;28;20502;-80
2024/01/24 06:00:39;;;;;;;7.90;2.30;;;12.30;99.90;;;;;;5077966;28;20463;-79
2024/01/24 06:03:07;;;;;;;10.03;2.63;;;12.30;99.90;;;;;;5076141;28;20457;-79
2024/01/24 06:05:34;;;;;;;10.87;2.33;;;12.30;99.90;;;;;;5072246;28;20849;-80
2024/01/24 06:08:03;;;;;;;8.83;2.20;;;12.40;99.90;;;;;;5072969;28;21243;-79
2024/01/24 06:10:30;;;;;;;11.93;3.20;;;12.40;99.90;;;;;;5072906;28;20459;-79
2024/01/24 06:12:57;;;;;;;7.03;2.20;;;12.40;99.90;;;;;;5073177;28;20523;-79
2024/01/24 06:15:24;;;;;;;6.43;1.87;;;12.40;99.90;;;;;;5073181;28;20495;-80
2024/01/24 06:17:51;;;;;;;14.63;2.37;;;12.40;99.90;;;;;;5073398;28;20943;-80
2024/01/24 06:20:18;;;;;;;7.70;2.10;;;12.40;99.90;;;;;;5074226;28;20456;-80
2024/01/24 06:22:46;;;;;;;8.67;2.80;;;12.30;99.90;;;;;;5074076;28;20465;-78
2024/01/24 06:25:14;;;;;;;12.73;2.37;;;12.30;99.90;;;;;;5072561;28;20447;-79
2024/01/24 06:27:42;;;;;;;8.50;2.33;;;12.30;99.90;;;;;;5073334;28;20574;-79
2024/01/24 06:30:10;;;;;;;7.90;2.97;;;12.10;99.90;;;;;;5072918;28;20463;-79
2024/01/24 06:32:37;;;;;;;9.97;2.97;;;12.00;99.90;;;;;;5066945;28;20455;-78
2024/01/24 06:35:04;;;;;;;10.13;3.60;;;11.90;99.90;;;;;;5072349;28;20661;-79
2024/01/24 06:37:31;;;;;;;10.50;2.53;;;11.90;99.90;;;;;;5073315;28;20480;-79
2024/01/24 06:39:58;;;;;;;15.83;3.27;;;11.90;99.90;;;;;;5072762;28;20952;-79
2024/01/24 06:42:26;;;;;;;12.57;2.90;;;12.00;99.90;;;;;;5073107;28;20458;-79
2024/01/24 06:44:54;;;;;;;11.73;3.37;;;12.10;99.90;;;;;;5072867;28;20449;-78
2024/01/24 06:47:21;;;;;;;14.00;3.43;;;12.10;99.90;;;;;;5073109;28;20471;-79
2024/01/24 06:49:47;;;;;;;14.50;3.77;;;12.20;99.90;;;;;;5072789;28;20454;-78
2024/01/24 06:52:14;;;;;;;12.17;2.90;;;12.20;99.90;;;;;;5071821;28;20469;-79
2024/01/24 06:54:41;;;;;;;12.87;3.07;;;12.20;99.90;;;;;;5072559;28;20488;-79
2024/01/24 06:57:08;;;;;;;11.60;3.20;;;12.20;99.90;;;;;;5072283;28;20856;-78
2024/01/24 06:59:44;;;;;;;11.70;2.90;;;12.20;99.90;;;;;;5073335;28;20456;-79
2024/01/24 07:02:13;;;;;;;15.97;4.20;;;12.20;99.90;;;;;;5073081;28;20471;-77
2024/01/24 07:04:39;;;;;;;15.00;4.10;;;12.20;99.90;;;;;;5076484;28;20445;-78
2024/01/24 07:07:06;;;;;;;15.03;3.53;;;12.10;99.90;;;;;;5078231;28;20475;-79
2024/01/24 07:09:35;;;;;;;16.10;3.27;;;12.10;99.90;;;;;;5077012;28;20444;-80
2024/01/24 07:12:02;;;;;;;11.80;3.30;;;12.10;99.90;;;;;;5073781;28;20440;-78
2024/01/24 07:14:29;;;;;;;8.13;2.93;;;12.10;99.90;;;;;;5076548;28;20568;-79
2024/01/24 07:16:57;;;;;;;14.77;5.00;;;12.20;99.90;;;;;;5073633;28;20471;-79
2024/01/24 07:19:24;;;;;;;14.97;3.30;;;12.20;99.90;;;;;;5074965;28;21007;-78
2024/01/24 07:21:51;;;;;;;15.40;3.50;;;12.20;99.90;;;;;;5076499;28;20520;-81
2024/01/24 07:24:17;;;;;;;19.30;4.17;;;12.10;99.90;;;;;;5078623;28;20525;-78
2024/01/24 07:26:44;;;;;;;12.60;3.80;;;12.20;99.90;;;;;;5079832;28;20564;-82
2024/01/24 07:29:11;;;;;;;15.20;3.80;;;12.20;99.90;;;;;;5079004;28;20461;-78
2024/01/24 07:31:39;;;;;;;17.87;3.37;;;12.20;99.90;;;;;;5085890;28;20894;-80
2024/01/24 07:34:08;;;;;;;14.10;3.40;;;12.20;99.90;;;;;;5077627;28;20483;-80
2024/01/24 07:36:34;;;;;;;14.30;3.30;;;12.20;99.90;;;;;;5079242;28;20472;-78
2024/01/24 07:39:02;;;;;;;22.83;3.97;;;12.20;99.90;;;;;;5075977;28;20545;-79
2024/01/24 07:41:29;;;;;;;16.43;3.73;;;12.20;99.90;;;;;;5079059;28;20539;-78
2024/01/24 07:43:57;;;;;;;16.40;4.00;;;12.20;99.90;;;;;;5077461;28;20527;-79
2024/01/24 07:46:25;;;;;;;19.10;4.40;;;12.20;99.90;;;;;;5081682;28;20484;-81
2024/01/24 07:48:52;;;;;;;14.17;3.60;;;12.20;99.90;;;;;;5082499;28;20441;-79
2024/01/24 07:51:20;;;;;;;18.30;4.70;;;12.10;99.90;;;;;;5085092;28;20528;-80
2024/01/24 07:53:48;;;;;;;22.00;5.20;;;12.10;99.90;;;;;;5080895;28;20561;-80
2024/01/24 07:56:15;;;;;;;24.50;5.40;;;12.10;99.90;;;;;;5082197;28;20462;-78
2024/01/24 07:58:43;;;;;;;11.57;4.13;;;12.10;99.90;;;;;;5083992;28;20511;-80
2024/01/24 08:01:10;;;;;;;16.43;4.47;;;12.10;99.90;;;;;;5088373;28;20488;-81
2024/01/24 08:03:36;;;;;;;15.37;4.30;;;12.10;99.90;;;;;;5083174;28;20705;-79
2024/01/24 08:06:04;;;;;;;21.83;5.23;;;12.10;99.90;;;;;;5082980;28;20448;-81
2024/01/24 08:08:32;;;;;;;18.97;5.13;;;12.10;99.90;;;;;;5083829;28;20548;-80
2024/01/24 08:10:58;;;;;;;21.70;4.90;;;12.10;99.90;;;;;;5092545;28;20547;-79
2024/01/24 08:13:25;;;;;;;15.57;5.33;;;12.00;99.90;;;;;;5086922;28;20464;-80
2024/01/24 08:15:52;;;;;;;17.90;4.07;;;12.00;99.90;;;;;;5093297;28;20463;-79
2024/01/24 08:18:19;;;;;;;19.63;4.37;;;12.00;99.90;;;;;;5085508;28;20472;-78
2024/01/24 08:20:46;;;;;;;13.30;4.40;;;12.00;99.90;;;;;;5088637;28;20536;-80
2024/01/24 08:23:13;;;;;;;17.70;4.80;;;12.00;99.90;;;;;;5085550;28;20462;-79
2024/01/24 08:25:41;;;;;;;15.30;6.20;;;11.90;99.90;;;;;;5089693;28;20550;-80
2024/01/24 08:28:08;;;;;;;17.67;4.60;;;12.00;99.90;;;;;;5091683;28;21059;-81
2024/01/24 08:30:35;;;;;;;15.80;4.63;;;12.00;99.90;;;;;;5088651;28;20455;-79
2024/01/24 08:33:02;;;;;;;19.10;4.80;;;12.00;99.90;;;;;;5086787;28;20459;-81
2024/01/24 08:35:29;;;;;;;32.13;9.67;;;12.00;99.90;;;;;;5084165;28;20492;-79
2024/01/24 08:37:56;;;;;;;24.57;5.60;;;11.90;99.90;;;;;;5086459;28;20460;-80
2024/01/24 08:40:23;;;;;;;17.50;5.53;;;11.90;99.90;;;;;;5089110;28;20523;-79
2024/01/24 08:42:51;;;;;;;15.07;4.43;;;11.90;99.90;;;;;;5098146;28;20535;-79
2024/01/24 08:45:18;;;;;;;23.33;5.77;;;12.00;99.90;;;;;;5088539;28;20460;-81
2024/01/24 08:47:44;;;;;;;19.97;5.60;;;12.00;99.90;;;;;;5068802;28;20496;-80
2024/01/24 08:50:12;;;;;;;24.00;4.90;;;12.00;99.90;;;;;;5082503;28;20449;-81
2024/01/24 08:52:39;;;;;;;22.60;5.83;;;12.00;99.90;;;;;;5082975;28;20540;-79
2024/01/24 08:55:07;;;;;;;18.57;4.40;;;12.10;99.90;;;;;;5071165;28;20485;-81
2024/01/24 08:57:34;;;;;;;21.20;5.10;;;12.20;99.90;;;;;;5076130;28;20476;-81
2024/01/24 09:00:02;;;;;;;13.90;4.63;;;12.20;99.90;;;;;;5075178;28;20525;-81
2024/01/24 09:02:29;;;;;;;19.77;4.40;;;12.20;99.90;;;;;;5078808;28;20945;-80
2024/01/24 09:04:56;;;;;;;21.97;5.47;;;12.20;99.90;;;;;;5077728;28;20441;-81
2024/01/24 09:07:23;;;;;;;19.57;5.57;;;12.10;99.90;;;;;;5077530;28;21062;-80
2024/01/24 09:09:51;;;;;;;22.93;5.67;;;12.10;99.90;;;;;;5080197;28;20515;-80
2024/01/24 09:12:18;;;;;;;22.07;5.77;;;12.00;99.90;;;;;;5080259;28;20491;-81
2024/01/24 09:14:45;;;;;;;21.63;4.90;;;12.10;99.90;;;;;;5077341;28;20501;-80
2024/01/24 09:17:14;;;;;;;26.90;6.50;;;12.10;99.90;;;;;;5077804;28;20493;-81
2024/01/24 09:19:41;;;;;;;33.30;4.83;;;12.10;99.90;;;;;;5085039;28;20478;-81
2024/01/24 09:22:09;;;;;;;15.17;4.40;;;12.10;99.90;;;;;;5084544;28;20524;-80
2024/01/24 09:24:36;;;;;;;34.70;6.50;;;12.10;99.90;;;;;;5083951;28;20547;-79
2024/01/24 09:27:04;;;;;;;33.33;5.97;;;12.10;99.90;;;;;;5084817;28;20571;-81
2024/01/24 09:29:31;;;;;;;26.30;9.03;;;12.10;99.90;;;;;;5074354;28;20540;-81
2024/01/24 09:31:58;;;;;;;25.67;5.47;;;12.10;99.90;;;;;;5080919;28;20516;-79
2024/01/24 09:34:26;;;;;;;23.80;4.73;;;12.00;99.90;;;;;;5082597;28;20583;-81
2024/01/24 09:36:53;;;;;;;18.23;5.30;;;12.00;99.90;;;;;;5081805;28;20469;-83
2024/01/24 09:39:20;;;;;;;25.77;5.70;;;12.00;99.90;;;;;;5080764;28;20484;-81
2024/01/24 09:41:51;;;;;;;22.07;5.43;;;12.00;99.90;;;;;;5082438;28;20461;-80
2024/01/24 09:44:17;;;;;;;23.67;5.87;;;12.00;99.90;;;;;;5082105;28;20548;-82
2024/01/24 09:46:44;;;;;;;12.83;5.10;;;12.20;99.90;;;;;;5078256;28;20496;-81
2024/01/24 09:49:12;;;;;;;24.33;5.60;;;12.20;99.90;;;;;;5078406;28;20523;-80
2024/01/24 09:51:41;;;;;;;24.20;5.17;;;12.20;99.90;;;;;;5077882;28;20511;-81
2024/01/24 09:54:08;;;;;;;17.33;5.10;;;12.20;99.90;;;;;;5078113;28;20860;-81
2024/01/24 09:56:37;;;;;;;18.40;4.27;;;12.20;99.90;;;;;;5079188;28;20504;-80
2024/01/24 09:59:05;;;;;;;26.30;5.07;;;12.30;99.90;;;;;;5080290;28;20472;-81
2024/01/24 10:01:34;;;;;;;27.07;5.27;;;12.30;99.90;;;;;;5081291;28;20453;-81
2024/01/24 10:04:02;;;;;;;21.03;5.43;;;12.30;99.90;;;;;;5080920;28;20450;-81
2024/01/24 10:06:29;;;;;;;24.00;6.63;;;12.20;99.90;;;;;;5080916;28;20902;-80
2024/01/24 10:08:58;;;;;;;19.20;5.70;;;12.20;99.90;;;;;;5080604;28;20452;-81
2024/01/24 10:11:25;;;;;;;19.17;5.03;;;12.20;99.90;;;;;;5072558;28;20452;-80
2024/01/24 10:13:55;;;;;;;20.13;5.10;;;12.10;99.90;;;;;;5081354;28;20458;-80
2024/01/24 10:16:23;;;;;;;18.77;5.03;;;12.10;99.90;;;;;;5069792;28;20891;-81
2024/01/24 10:18:50;;;;;;;18.90;4.67;;;12.10;99.90;;;;;;5077683;28;20466;-79
2024/01/24 10:21:17;;;;;;;18.33;4.40;;;12.00;99.90;;;;;;5079807;28;20519;-82
2024/01/24 10:23:43;;;;;;;23.23;4.93;;;12.00;99.90;;;;;;5079134;28;20478;-81
2024/01/24 10:26:12;;;;;;;24.90;6.10;;;11.90;99.90;;;;;;5078820;28;20444;-81
2024/01/24 10:28:38;;;;;;;21.83;5.67;;;11.90;99.90;;;;;;5083960;28;20506;-81
2024/01/24 10:31:06;;;;;;;17.43;5.60;;;11.90;99.90;;;;;;5078275;28;20453;-82
2024/01/24 10:33:33;;;;;;;19.20;5.90;;;12.00;99.90;;;;;;5080762;28;20453;-81
2024/01/24 10:36:00;;;;;;;20.00;4.73;;;12.00;99.90;;;;;;5082173;28;20484;-79
2024/01/24 10:38:31;;;;;;;21.63;6.27;;;12.00;99.90;;;;;;5079628;28;20537;-81
2024/01/24 10:41:00;;;;;;;14.07;4.20;;;12.00;99.90;;;;;;5073423;28;20456;-80
2024/01/24 10:43:29;;;;;;;14.70;5.00;;;12.00;99.90;;;;;;5088828;28;20477;-80
2024/01/24 10:45:57;;;;;;;17.07;4.40;;;12.00;99.90;;;;;;5087582;28;20830;-80
2024/01/24 10:48:25;;;;;;;23.53;5.90;;;12.00;99.90;;;;;;5076026;28;20498;-80
2024/01/24 10:50:53;;;;;;;16.13;4.33;;;11.90;99.90;;;;;;5083405;28;20625;-81
2024/01/24 10:53:22;;;;;;;22.33;5.50;;;11.90;99.90;;;;;;5081689;28;20483;-80
2024/01/24 10:55:50;;;;;;;17.20;5.10;;;11.90;99.90;;;;;;5083118;28;20557;-79
2024/01/24 10:58:18;;;;;;;16.27;5.60;;;11.90;99.90;;;;;;5082520;28;20485;-81
2024/01/24 11:00:46;;;;;;;11.70;4.63;;;11.90;99.90;;;;;;5089442;28;20450;-80
2024/01/24 11:03:13;;;;;;;20.13;6.47;;;12.00;99.90;;;;;;5083686;28;20481;-79
2024/01/24 11:05:44;;;;;;;20.90;6.00;;;11.90;99.90;;;;;;5082071;28;20544;-79
2024/01/24 11:08:16;;;;;;;19.27;5.03;;;12.00;99.90;;;;;;5081391;28;20505;-79
2024/01/24 11:10:44;;;;;;;25.03;5.17;;;12.10;99.90;;;;;;5081643;28;20532;-80
2024/01/24 11:13:13;;;;;;;15.00;4.53;;;12.10;99.90;;;;;;5083630;28;20452;-79
2024/01/24 11:15:43;;;;;;;19.10;5.07;;;12.10;99.90;;;;;;5089416;28;20566;-79
2024/01/24 11:18:23;;;;;;;18.20;4.90;;;12.20;99.90;;;;;;5083421;28;20473;-80
2024/01/24 11:20:52;;;;;;;17.30;5.00;;;12.20;99.90;;;;;;5082139;28;21054;-81
2024/01/24 11:23:43;;;;;;;20.60;5.40;;;12.10;99.90;;;;;;5080549;28;21026;-81
2024/01/24 11:26:10;;;;;;;21.03;5.10;;;12.10;99.90;;;;;;5082882;28;20470;-80
2024/01/24 11:28:38;;;;;;;16.50;4.10;;;12.20;99.90;;;;;;5083090;28;20475;-79
2024/01/24 11:31:06;;;;;;;30.13;5.93;;;12.10;99.90;;;;;;5095669;28;20464;-81
2024/01/24 11:33:35;;;;;;;18.93;4.23;;;12.10;99.90;;;;;;5092960;28;20461;-80
2024/01/24 11:36:03;;;;;;;21.93;5.00;;;12.10;99.90;;;;;;5091093;28;20494;-80
2024/01/24 11:38:34;;;;;;;25.23;5.30;;;12.10;99.90;;;;;;5090730;28;20496;-80
2024/01/24 11:41:03;;;;;;;15.17;4.37;;;12.10;99.90;;;;;;5091859;28;20465;-78
2024/01/24 11:43:31;;;;;;;19.00;5.70;;;12.00;99.90;;;;;;5083322;28;20535;-80
2024/01/24 11:46:00;;;;;;;21.37;6.30;;;12.10;99.90;;;;;;5076936;28;20469;-79
2024/01/24 11:48:28;;;;;;;23.30;5.60;;;12.00;99.90;;;;;;5079628;28;20507;-79
2024/01/24 11:50:58;;;;;;;24.77;6.60;;;12.00;99.90;;;;;;5079775;28;20547;-80
2024/01/24 11:53:25;;;;;;;19.33;4.67;;;12.00;99.90;;;;;;5077218;28;20485;-79
2024/01/24 11:55:54;;;;;;;13.83;3.90;;;12.10;99.90;;;;;;5079701;28;20581;-79
2024/01/24 11:58:23;;;;;;;18.47;4.20;;;12.10;99.90;;;;;;5077010;28;20939;-80
2024/01/24 12:00:50;;;;;;;24.10;6.67;;;12.20;99.90;;;;;;5077780;28;20454;-79
2024/01/24 12:03:17;;;;;;;25.67;4.93;;;12.20;99.90;;;;;;5076231;28;20924;-79
2024/01/24 12:05:44;;;;;;;16.20;4.83;;;12.20;99.90;;;;;;5078314;28;20527;-79
2024/01/24 12:08:12;;;;;;;19.83;4.90;;;12.20;99.90;;;;;;5076498;28;20501;-78
2024/01/24 12:10:51;;;;;;;13.20;3.60;;;12.20;99.90;;;;;;5077146;28;20449;-79
2024/01/24 12:13:19;;;;;;;27.53;5.10;;;12.10;99.90;;;;;;5077803;28;20456;-78
2024/01/24 12:15:47;;;;;;;21.20;4.63;;;12.10;99.90;;;;;;5077876;28;20571;-80
2024/01/24 12:18:16;;;;;;;20.80;5.50;;;12.30;99.90;;;;;;5076101;28;20517;-79
2024/01/24 12:20:47;;;;;;;20.13;5.70;;;12.20;99.90;;;;;;5075174;28;20454;-78
2024/01/24 12:23:16;;;;;;;21.17;4.60;;;12.20;99.90;;;;;;5077445;28;20521;-79
2024/01/24 12:25:44;;;;;;;16.17;4.83;;;12.10;99.90;;;;;;5087769;28;20449;-79
2024/01/24 12:28:11;;;;;;;17.00;4.30;;;12.10;99.90;;;;;;5089804;28;20451;-79
2024/01/24 12:30:38;;;;;;;24.50;4.70;;;12.10;99.90;;;;;;5095326;28;20480;-79
2024/01/24 12:33:06;;;;;;;19.73;4.63;;;12.10;99.90;;;;;;5094275;28;20475;-79
2024/01/24 12:35:33;;;;;;;15.27;4.20;;;12.20;99.90;;;;;;5095848;28;20505;-79
2024/01/24 12:38:01;;;;;;;15.50;4.87;;;12.20;99.90;;;;;;5096000;28;20483;-80
2024/01/24 12:40:31;;;;;;;18.67;5.00;;;12.30;99.90;;;;;;5095988;28;20558;-80
2024/01/24 12:43:00;;;;;;;26.87;4.93;;;12.30;99.90;;;;;;5088868;28;20671;-79